sensor_id;sensor_type;location;lat;lon;timestamp;pressure;altitude;pressure_sealevel;temperature;humidity
48517;BME280;34310;51.904;4.256;2023-04-20T00:02:17;102510.41;;;17.46;57.51
48517;BME280;34310;51.904;4.256;2023-04-20T00:04:44;102505.88;;;17.43;57.63
48517;BME280;34310;51.904;4.256;2023-04-20T00:07:12;102504.97;;;17.43;57.71
48517;BME280;34310;51.904;4.256;2023-04-20T00:09:42;102508.38;;;17.42;57.52
48517;BME280;34310;51.904;4.256;2023-04-20T00:12:10;102501.34;;;17.41;57.53
48517;BME280;34310;51.904;4.256;2023-04-20T00:14:37;102506.47;;;17.39;57.42
48517;BME280;34310;51.904;4.256;2023-04-20T00:17:04;102499.44;;;17.38;57.41
48517;BME280;34310;51.904;4.256;2023-04-20T00:19:32;102495.09;;;17.39;57.64
48517;BME280;34310;51.904;4.256;2023-04-20T00:22:00;102495.00;;;17.37;57.46
48517;BME280;34310;51.904;4.256;2023-04-20T00:24:27;102492.41;;;17.37;57.66
48517;BME280;34310;51.904;4.256;2023-04-20T00:26:54;102483.56;;;17.35;57.52
48517;BME280;34310;51.904;4.256;2023-04-20T00:29:22;102490.44;;;17.34;57.67
48517;BME280;34310;51.904;4.256;2023-04-20T00:31:49;102481.72;;;17.34;57.50
48517;BME280;34310;51.904;4.256;2023-04-20T00:34:17;102479.00;;;17.32;57.52
48517;BME280;34310;51.904;4.256;2023-04-20T00:36:44;102475.47;;;17.32;57.51
48517;BME280;34310;51.904;4.256;2023-04-20T00:39:11;102477.06;;;17.30;57.59
48517;BME280;34310;51.904;4.256;2023-04-20T00:41:39;102477.88;;;17.29;57.56
48517;BME280;34310;51.904;4.256;2023-04-20T00:44:07;102469.94;;;17.27;57.47
48517;BME280;34310;51.904;4.256;2023-04-20T00:46:37;102474.25;;;17.27;57.43
48517;BME280;34310;51.904;4.256;2023-04-20T00:49:05;102480.28;;;17.26;57.62
48517;BME280;34310;51.904;4.256;2023-04-20T00:51:34;102465.41;;;17.25;57.46
48517;BME280;34310;51.904;4.256;2023-04-20T00:54:02;102473.25;;;17.25;57.62
48517;BME280;34310;51.904;4.256;2023-04-20T00:56:29;102473.94;;;17.22;57.62
48517;BME280;34310;51.904;4.256;2023-04-20T00:58:56;102469.63;;;17.23;57.74
48517;BME280;34310;51.904;4.256;2023-04-20T01:01:24;102470.31;;;17.20;57.46
48517;BME280;34310;51.904;4.256;2023-04-20T01:03:52;102467.72;;;17.20;57.62
48517;BME280;34310;51.904;4.256;2023-04-20T01:06:20;102468.50;;;17.19;57.68
48517;BME280;34310;51.904;4.256;2023-04-20T01:08:51;102459.66;;;17.17;57.72
48517;BME280;34310;51.904;4.256;2023-04-20T01:11:18;102464.00;;;17.17;57.64
48517;BME280;34310;51.904;4.256;2023-04-20T01:13:46;102458.66;;;17.15;57.50
48517;BME280;34310;51.904;4.256;2023-04-20T01:16:13;102453.44;;;17.15;57.67
48517;BME280;34310;51.904;4.256;2023-04-20T01:18:42;102455.94;;;17.14;57.62
48517;BME280;34310;51.904;4.256;2023-04-20T01:21:15;102453.22;;;17.12;57.49
48517;BME280;34310;51.904;4.256;2023-04-20T01:23:43;102448.00;;;17.12;57.70
48517;BME280;34310;51.904;4.256;2023-04-20T01:26:13;102439.16;;;17.10;57.64
48517;BME280;34310;51.904;4.256;2023-04-20T01:28:40;102439.97;;;17.09;57.66
48517;BME280;34310;51.904;4.256;2023-04-20T01:31:09;102439.06;;;17.09;57.49
48517;BME280;34310;51.904;4.256;2023-04-20T01:33:37;102445.09;;;17.08;57.54
48517;BME280;34310;51.904;4.256;2023-04-20T01:36:05;102432.03;;;17.08;57.50
48517;BME280;34310;51.904;4.256;2023-04-20T01:38:34;102429.31;;;17.06;57.51
48517;BME280;34310;51.904;4.256;2023-04-20T01:41:04;102431.78;;;17.04;57.72
48517;BME280;34310;51.904;4.256;2023-04-20T01:43:33;102414.31;;;17.03;57.49
48517;BME280;34310;51.904;4.256;2023-04-20T01:46:01;102415.94;;;17.01;57.67
48517;BME280;34310;51.904;4.256;2023-04-20T01:48:29;102412.41;;;17.01;57.51
48517;BME280;34310;51.904;4.256;2023-04-20T01:50:56;102411.50;;;17.00;57.56
48517;BME280;34310;51.904;4.256;2023-04-20T01:53:23;102407.09;;;16.99;57.64
48517;BME280;34310;51.904;4.256;2023-04-20T01:55:54;102404.38;;;16.98;57.62
48517;BME280;34310;51.904;4.256;2023-04-20T01:58:21;102402.56;;;16.97;57.58
48517;BME280;34310;51.904;4.256;2023-04-20T02:00:49;102407.78;;;16.97;57.64
48517;BME280;34310;51.904;4.256;2023-04-20T02:03:16;102407.69;;;16.95;57.70
48517;BME280;34310;51.904;4.256;2023-04-20T02:05:44;102396.34;;;16.95;57.57
48517;BME280;34310;51.904;4.256;2023-04-20T02:08:11;102388.41;;;16.93;57.58
48517;BME280;34310;51.904;4.256;2023-04-20T02:10:39;102383.97;;;16.92;57.50
48517;BME280;34310;51.904;4.256;2023-04-20T02:13:06;102383.09;;;16.92;57.73
48517;BME280;34310;51.904;4.256;2023-04-20T02:15:33;102384.69;;;16.90;57.52
48517;BME280;34310;51.904;4.256;2023-04-20T02:18:01;102370.72;;;16.89;57.63
48517;BME280;34310;51.904;4.256;2023-04-20T02:20:30;102374.13;;;16.88;57.69
48517;BME280;34310;51.904;4.256;2023-04-20T02:22:57;102381.88;;;16.87;57.73
48517;BME280;34310;51.904;4.256;2023-04-20T02:25:24;102376.63;;;16.87;57.68
48517;BME280;34310;51.904;4.256;2023-04-20T02:27:52;102380.97;;;16.86;57.72
48517;BME280;34310;51.904;4.256;2023-04-20T02:30:19;102374.72;;;16.84;57.79
48517;BME280;34310;51.904;4.256;2023-04-20T02:32:46;102369.50;;;16.84;57.56
48517;BME280;34310;51.904;4.256;2023-04-20T02:35:14;102368.50;;;16.82;57.73
48517;BME280;34310;51.904;4.256;2023-04-20T02:37:43;102370.22;;;16.82;57.60
48517;BME280;34310;51.904;4.256;2023-04-20T02:40:11;102361.47;;;16.81;57.68
48517;BME280;34310;51.904;4.256;2023-04-20T02:42:38;102357.06;;;16.80;57.79
48517;BME280;34310;51.904;4.256;2023-04-20T02:45:06;102359.66;;;16.80;57.80
48517;BME280;34310;51.904;4.256;2023-04-20T02:47:34;102351.72;;;16.79;57.76
48517;BME280;34310;51.904;4.256;2023-04-20T02:50:02;102353.44;;;16.78;57.65
48517;BME280;34310;51.904;4.256;2023-04-20T02:52:30;102345.47;;;16.77;57.77
48517;BME280;34310;51.904;4.256;2023-04-20T02:54:57;102341.19;;;16.77;57.82
48517;BME280;34310;51.904;4.256;2023-04-20T02:57:24;102341.97;;;16.76;57.75
48517;BME280;34310;51.904;4.256;2023-04-20T02:59:52;102345.38;;;16.75;57.64
48517;BME280;34310;51.904;4.256;2023-04-20T03:02:19;102339.25;;;16.75;57.70
48517;BME280;34310;51.904;4.256;2023-04-20T03:04:47;102331.31;;;16.73;57.82
48517;BME280;34310;51.904;4.256;2023-04-20T03:07:14;102333.03;;;16.72;57.84
48517;BME280;34310;51.904;4.256;2023-04-20T03:09:43;102336.53;;;16.73;57.85
48517;BME280;34310;51.904;4.256;2023-04-20T03:12:10;102335.53;;;16.71;57.90
48517;BME280;34310;51.904;4.256;2023-04-20T03:14:37;102339.84;;;16.70;57.90
48517;BME280;34310;51.904;4.256;2023-04-20T03:17:05;102332.81;;;16.69;57.76
48517;BME280;34310;51.904;4.256;2023-04-20T03:19:32;102326.69;;;16.69;57.91
48517;BME280;34310;51.904;4.256;2023-04-20T03:21:59;102317.97;;;16.68;57.88
48517;BME280;34310;51.904;4.256;2023-04-20T03:24:27;102322.28;;;16.68;57.77
48517;BME280;34310;51.904;4.256;2023-04-20T03:26:54;102315.25;;;16.67;57.77
48517;BME280;34310;51.904;4.256;2023-04-20T03:29:21;102309.13;;;16.66;57.97
48517;BME280;34310;51.904;4.256;2023-04-20T03:31:49;102308.22;;;16.66;57.88
48517;BME280;34310;51.904;4.256;2023-04-20T03:34:16;102305.47;;;16.64;57.90
48517;BME280;34310;51.904;4.256;2023-04-20T03:36:44;102305.47;;;16.64;58.00
48517;BME280;34310;51.904;4.256;2023-04-20T03:39:11;102304.56;;;16.64;57.92
48517;BME280;34310;51.904;4.256;2023-04-20T03:41:39;102295.75;;;16.62;57.77
48517;BME280;34310;51.904;4.256;2023-04-20T03:44:06;102299.25;;;16.62;57.88
48517;BME280;34310;51.904;4.256;2023-04-20T03:46:33;102289.63;;;16.61;57.99
48517;BME280;34310;51.904;4.256;2023-04-20T03:49:02;102290.44;;;16.60;57.99
48517;BME280;34310;51.904;4.256;2023-04-20T03:51:29;102283.50;;;16.61;57.80
48517;BME280;34310;51.904;4.256;2023-04-20T03:53:58;102283.50;;;16.61;57.87
48517;BME280;34310;51.904;4.256;2023-04-20T03:56:25;102286.00;;;16.59;57.97
48517;BME280;34310;51.904;4.256;2023-04-20T03:58:53;102273.66;;;16.57;57.85
48517;BME280;34310;51.904;4.256;2023-04-20T04:01:20;102271.97;;;16.57;57.91
48517;BME280;34310;51.904;4.256;2023-04-20T04:03:48;102277.19;;;16.57;57.93
48517;BME280;34310;51.904;4.256;2023-04-20T04:06:16;102266.66;;;16.56;57.93
48517;BME280;34310;51.904;4.256;2023-04-20T04:08:43;102268.34;;;16.55;57.91
48517;BME280;34310;51.904;4.256;2023-04-20T04:11:10;102263.13;;;16.55;57.98
48517;BME280;34310;51.904;4.256;2023-04-20T04:13:38;102266.53;;;16.54;57.99
48517;BME280;34310;51.904;4.256;2023-04-20T04:16:05;102261.31;;;16.54;57.91
48517;BME280;34310;51.904;4.256;2023-04-20T04:18:32;102249.09;;;16.53;58.11
48517;BME280;34310;51.904;4.256;2023-04-20T04:21:00;102254.31;;;16.53;58.10
48517;BME280;34310;51.904;4.256;2023-04-20T04:23:27;102244.69;;;16.52;58.05
48517;BME280;34310;51.904;4.256;2023-04-20T04:25:55;102251.59;;;16.52;57.99
48517;BME280;34310;51.904;4.256;2023-04-20T04:28:23;102249.78;;;16.51;57.96
48517;BME280;34310;51.904;4.256;2023-04-20T04:30:50;102258.50;;;16.51;58.01
48517;BME280;34310;51.904;4.256;2023-04-20T04:33:18;102244.47;;;16.49;58.07
48517;BME280;34310;51.904;4.256;2023-04-20T04:35:46;102240.06;;;16.48;58.13
48517;BME280;34310;51.904;4.256;2023-04-20T04:38:14;102237.44;;;16.48;58.08
48517;BME280;34310;51.904;4.256;2023-04-20T04:40:42;102237.31;;;16.47;58.13
48517;BME280;34310;51.904;4.256;2023-04-20T04:43:11;102238.22;;;16.47;58.12
48517;BME280;34310;51.904;4.256;2023-04-20T04:45:39;102235.59;;;16.47;58.19
48517;BME280;34310;51.904;4.256;2023-04-20T04:48:09;102225.06;;;16.46;57.97
48517;BME280;34310;51.904;4.256;2023-04-20T04:50:38;102230.28;;;16.46;58.13
48517;BME280;34310;51.904;4.256;2023-04-20T04:53:07;102227.56;;;16.44;58.09
48517;BME280;34310;51.904;4.256;2023-04-20T04:55:34;102223.25;;;16.45;58.14
48517;BME280;34310;51.904;4.256;2023-04-20T04:58:01;102222.38;;;16.44;58.07
48517;BME280;34310;51.904;4.256;2023-04-20T05:00:29;102210.13;;;16.43;57.96
48517;BME280;34310;51.904;4.256;2023-04-20T05:02:57;102206.63;;;16.42;58.03
48517;BME280;34310;51.904;4.256;2023-04-20T05:05:25;102204.81;;;16.41;58.04
48517;BME280;34310;51.904;4.256;2023-04-20T05:07:52;102201.31;;;16.41;58.13
48517;BME280;34310;51.904;4.256;2023-04-20T05:10:19;102193.38;;;16.39;58.23
48517;BME280;34310;51.904;4.256;2023-04-20T05:12:48;102193.47;;;16.41;58.06
48517;BME280;34310;51.904;4.256;2023-04-20T05:15:15;102189.97;;;16.40;58.20
48517;BME280;34310;51.904;4.256;2023-04-20T05:17:43;102185.44;;;16.38;58.02
48517;BME280;34310;51.904;4.256;2023-04-20T05:20:11;102178.53;;;16.38;58.07
48517;BME280;34310;51.904;4.256;2023-04-20T05:22:39;102182.94;;;16.39;58.20
48517;BME280;34310;51.904;4.256;2023-04-20T05:25:07;102180.25;;;16.38;58.02
48517;BME280;34310;51.904;4.256;2023-04-20T05:27:35;102175.81;;;16.37;58.15
48517;BME280;34310;51.904;4.256;2023-04-20T05:30:02;102172.31;;;16.36;58.22
48517;BME280;34310;51.904;4.256;2023-04-20T05:32:47;102176.72;;;16.37;58.14
48517;BME280;34310;51.904;4.256;2023-04-20T05:35:19;102167.09;;;16.36;58.24
48517;BME280;34310;51.904;4.256;2023-04-20T05:37:46;102167.09;;;16.36;58.22
48517;BME280;34310;51.904;4.256;2023-04-20T05:40:14;102159.97;;;16.34;58.17
48517;BME280;34310;51.904;4.256;2023-04-20T05:42:42;102152.25;;;16.35;58.13
48517;BME280;34310;51.904;4.256;2023-04-20T05:45:09;102159.19;;;16.35;58.28
48517;BME280;34310;51.904;4.256;2023-04-20T05:47:37;102154.78;;;16.34;58.11
48517;BME280;34310;51.904;4.256;2023-04-20T05:50:05;102148.66;;;16.33;58.26
48517;BME280;34310;51.904;4.256;2023-04-20T05:52:32;102146.03;;;16.33;58.21
48517;BME280;34310;51.904;4.256;2023-04-20T05:55:00;102148.66;;;16.33;58.35
48517;BME280;34310;51.904;4.256;2023-04-20T05:57:27;102147.75;;;16.33;58.19
48517;BME280;34310;51.904;4.256;2023-04-20T05:59:54;102144.25;;;16.32;58.22
48517;BME280;34310;51.904;4.256;2023-04-20T06:02:22;102148.56;;;16.32;58.38
48517;BME280;34310;51.904;4.256;2023-04-20T06:04:49;102150.25;;;16.31;58.28
48517;BME280;34310;51.904;4.256;2023-04-20T06:07:17;102153.75;;;16.32;58.28
48517;BME280;34310;51.904;4.256;2023-04-20T06:09:44;102141.53;;;16.31;58.22
48517;BME280;34310;51.904;4.256;2023-04-20T06:12:12;102135.53;;;16.32;58.27
48517;BME280;34310;51.904;4.256;2023-04-20T06:14:39;102141.53;;;16.31;58.44
48517;BME280;34310;51.904;4.256;2023-04-20T06:17:07;102144.94;;;16.30;58.43
48517;BME280;34310;51.904;4.256;2023-04-20T06:19:34;102142.34;;;16.30;58.29
48517;BME280;34310;51.904;4.256;2023-04-20T06:22:06;102138.81;;;16.29;58.24
48517;BME280;34310;51.904;4.256;2023-04-20T06:24:34;102131.81;;;16.28;58.37
48517;BME280;34310;51.904;4.256;2023-04-20T06:27:02;102137.81;;;16.27;58.30
48517;BME280;34310;51.904;4.256;2023-04-20T06:29:29;102131.50;;;16.24;57.21
48517;BME280;34310;51.904;4.256;2023-04-20T06:31:56;102139.31;;;16.24;57.49
48517;BME280;34310;51.904;4.256;2023-04-20T06:34:24;102134.00;;;16.22;57.64
48517;BME280;34310;51.904;4.256;2023-04-20T06:36:51;102134.00;;;16.22;57.60
48517;BME280;34310;51.904;4.256;2023-04-20T06:39:18;102134.91;;;16.23;57.77
48517;BME280;34310;51.904;4.256;2023-04-20T06:41:46;102127.09;;;16.23;57.75
48517;BME280;34310;51.904;4.256;2023-04-20T06:44:13;102139.22;;;16.22;57.81
48517;BME280;34310;51.904;4.256;2023-04-20T06:46:41;102126.06;;;16.21;57.75
48517;BME280;34310;51.904;4.256;2023-04-20T06:49:08;102133.91;;;16.21;57.72
48517;BME280;34310;51.904;4.256;2023-04-20T06:51:35;102119.16;;;16.21;57.64
48517;BME280;34310;51.904;4.256;2023-04-20T06:54:03;102127.78;;;16.20;57.65
48517;BME280;34310;51.904;4.256;2023-04-20T06:56:30;102119.97;;;16.20;57.71
48517;BME280;34310;51.904;4.256;2023-04-20T06:59:01;102122.56;;;16.20;57.65
48517;BME280;34310;51.904;4.256;2023-04-20T07:01:28;102115.56;;;16.19;57.73
48517;BME280;34310;51.904;4.256;2023-04-20T07:03:55;102125.19;;;16.20;57.73
48517;BME280;34310;51.904;4.256;2023-04-20T07:06:23;102124.28;;;16.20;57.76
48517;BME280;34310;51.904;4.256;2023-04-20T07:08:51;102122.44;;;16.19;57.90
48517;BME280;34310;51.904;4.256;2023-04-20T07:11:18;102116.44;;;16.20;57.73
48517;BME280;34310;51.904;4.256;2023-04-20T07:13:46;102111.09;;;16.18;57.85
48517;BME280;34310;51.904;4.256;2023-04-20T07:16:15;102111.09;;;16.18;57.84
48517;BME280;34310;51.904;4.256;2023-04-20T07:18:43;102108.50;;;16.18;57.80
48517;BME280;34310;51.904;4.256;2023-04-20T07:21:10;102100.69;;;16.18;58.00
48517;BME280;34310;51.904;4.256;2023-04-20T07:23:38;102099.78;;;16.18;57.84
48517;BME280;34310;51.904;4.256;2023-04-20T07:26:05;102100.59;;;16.17;58.00
48517;BME280;34310;51.904;4.256;2023-04-20T07:28:33;102104.19;;;16.19;57.92
48517;BME280;34310;51.904;4.256;2023-04-20T07:31:00;102104.09;;;16.17;57.91
48517;BME280;34310;51.904;4.256;2023-04-20T07:33:28;102104.09;;;16.17;57.96
48517;BME280;34310;51.904;4.256;2023-04-20T07:35:55;102113.59;;;16.17;57.94
48517;BME280;34310;51.904;4.256;2023-04-20T07:38:23;102115.41;;;16.18;58.01
48517;BME280;34310;51.904;4.256;2023-04-20T07:40:50;102120.63;;;16.18;58.12
48517;BME280;34310;51.904;4.256;2023-04-20T07:43:17;102111.00;;;16.17;57.96
48517;BME280;34310;51.904;4.256;2023-04-20T07:45:45;102111.00;;;16.17;57.93
48517;BME280;34310;51.904;4.256;2023-04-20T07:48:13;102113.59;;;16.17;57.95
48517;BME280;34310;51.904;4.256;2023-04-20T07:50:41;102110.09;;;16.16;57.95
48517;BME280;34310;51.904;4.256;2023-04-20T07:53:08;102108.41;;;16.17;58.17
48517;BME280;34310;51.904;4.256;2023-04-20T07:55:35;102120.63;;;16.18;58.17
48517;BME280;34310;51.904;4.256;2023-04-20T07:58:03;102115.31;;;16.16;58.06
48517;BME280;34310;51.904;4.256;2023-04-20T08:00:30;102123.22;;;16.18;58.10
48517;BME280;34310;51.904;4.256;2023-04-20T08:02:57;102116.31;;;16.18;58.08
48517;BME280;34310;51.904;4.256;2023-04-20T08:05:25;102127.53;;;16.17;58.09
48517;BME280;34310;51.904;4.256;2023-04-20T08:07:53;102119.72;;;16.17;58.02
48517;BME280;34310;51.904;4.256;2023-04-20T08:10:21;102128.44;;;16.18;58.10
48517;BME280;34310;51.904;4.256;2023-04-20T08:12:48;102121.44;;;16.17;58.22
48517;BME280;34310;51.904;4.256;2023-04-20T08:15:18;102121.44;;;16.17;58.16
48517;BME280;34310;51.904;4.256;2023-04-20T08:17:46;102125.72;;;16.16;58.11
48517;BME280;34310;51.904;4.256;2023-04-20T08:20:13;102117.91;;;16.16;58.26
48517;BME280;34310;51.904;4.256;2023-04-20T08:22:41;102119.72;;;16.17;58.13
48517;BME280;34310;51.904;4.256;2023-04-20T08:25:08;102108.41;;;16.17;58.02
48517;BME280;34310;51.904;4.256;2023-04-20T08:27:36;102097.06;;;16.16;58.26
48517;BME280;34310;51.904;4.256;2023-04-20T08:30:03;102111.91;;;16.17;58.26
48517;BME280;34310;51.904;4.256;2023-04-20T08:32:31;102110.00;;;16.15;58.11
48517;BME280;34310;51.904;4.256;2023-04-20T08:34:59;102103.97;;;16.16;58.14
48517;BME280;34310;51.904;4.256;2023-04-20T08:37:26;102100.47;;;16.15;58.12
48517;BME280;34310;51.904;4.256;2023-04-20T08:39:56;102107.38;;;16.15;58.22
48517;BME280;34310;51.904;4.256;2023-04-20T08:42:23;102104.78;;;16.15;58.10
48517;BME280;34310;51.904;4.256;2023-04-20T08:44:52;102100.38;;;16.14;58.15
48517;BME280;34310;51.904;4.256;2023-04-20T08:47:20;102107.28;;;16.13;58.06
48517;BME280;34310;51.904;4.256;2023-04-20T08:49:52;102104.69;;;16.13;58.14
48517;BME280;34310;51.904;4.256;2023-04-20T08:52:20;102095.97;;;16.13;58.13
48517;BME280;34310;51.904;4.256;2023-04-20T08:54:48;102099.47;;;16.13;58.22
48517;BME280;34310;51.904;4.256;2023-04-20T08:57:24;102098.56;;;16.13;58.19
48517;BME280;34310;51.904;4.256;2023-04-20T08:59:52;102095.06;;;16.12;58.16
48517;BME280;34310;51.904;4.256;2023-04-20T09:02:19;102098.56;;;16.13;58.22
48517;BME280;34310;51.904;4.256;2023-04-20T09:04:48;102101.97;;;16.11;58.20
48517;BME280;34310;51.904;4.256;2023-04-20T09:07:20;102101.97;;;16.11;58.23
48517;BME280;34310;51.904;4.256;2023-04-20T09:09:58;102100.16;;;16.10;58.29
48517;BME280;34310;51.904;4.256;2023-04-20T09:12:26;102085.44;;;16.11;58.23
48517;BME280;34310;51.904;4.256;2023-04-20T09:14:54;102080.22;;;16.11;58.17
48517;BME280;34310;51.904;4.256;2023-04-20T09:17:33;102082.72;;;16.09;58.31
48517;BME280;34310;51.904;4.256;2023-04-20T09:20:01;102076.72;;;16.10;58.25
48517;BME280;34310;51.904;4.256;2023-04-20T09:22:40;102072.31;;;16.09;58.19
48517;BME280;34310;51.904;4.256;2023-04-20T09:25:17;102076.72;;;16.10;58.42
48517;BME280;34310;51.904;4.256;2023-04-20T09:27:56;102075.81;;;16.10;58.43
48517;BME280;34310;51.904;4.256;2023-04-20T09:30:24;102087.13;;;16.10;58.25
48517;BME280;34310;51.904;4.256;2023-04-20T09:33:04;102072.31;;;16.09;58.40
48517;BME280;34310;51.904;4.256;2023-04-20T09:35:32;102074.91;;;16.09;58.49
48517;BME280;34310;51.904;4.256;2023-04-20T09:37:59;102078.44;;;16.10;58.53
48517;BME280;34310;51.904;4.256;2023-04-20T09:40:27;102064.50;;;16.09;58.54
48517;BME280;34310;51.904;4.256;2023-04-20T09:42:57;102070.59;;;16.10;58.49
48517;BME280;34310;51.904;4.256;2023-04-20T09:45:25;102073.22;;;16.10;58.54
48517;BME280;34310;51.904;4.256;2023-04-20T09:47:54;102067.09;;;16.09;58.38
48517;BME280;34310;51.904;4.256;2023-04-20T09:50:22;102065.41;;;16.10;58.48
48517;BME280;34310;51.904;4.256;2023-04-20T09:53:04;102049.75;;;16.10;58.49
48517;BME280;34310;51.904;4.256;2023-04-20T09:55:32;102041.84;;;16.08;58.58
48517;BME280;34310;51.904;4.256;2023-04-20T09:58:04;102051.47;;;16.09;58.43
48517;BME280;34310;51.904;4.256;2023-04-20T10:00:31;102050.56;;;16.09;58.52
48517;BME280;34310;51.904;4.256;2023-04-20T10:02:59;102034.13;;;16.10;58.56
48517;BME280;34310;51.904;4.256;2023-04-20T10:05:34;102027.13;;;16.09;58.62
48517;BME280;34310;51.904;4.256;2023-04-20T10:08:03;102030.63;;;16.09;58.55
48517;BME280;34310;51.904;4.256;2023-04-20T10:10:41;102038.44;;;16.09;58.62
48517;BME280;34310;51.904;4.256;2023-04-20T10:13:08;102028.03;;;16.09;58.79
48517;BME280;34310;51.904;4.256;2023-04-20T10:15:37;102017.59;;;16.09;58.69
48517;BME280;34310;51.904;4.256;2023-04-20T10:18:19;102032.44;;;16.10;58.70
48517;BME280;34310;51.904;4.256;2023-04-20T10:20:47;102031.53;;;16.10;58.82
48517;BME280;34310;51.904;4.256;2023-04-20T10:23:15;102031.53;;;16.10;58.87
48517;BME280;34310;51.904;4.256;2023-04-20T10:26:02;102026.41;;;16.11;58.90
48517;BME280;34310;51.904;4.256;2023-04-20T10:28:40;102018.59;;;16.11;58.97
48517;BME280;34310;51.904;4.256;2023-04-20T10:31:09;102011.59;;;16.10;58.94
48517;BME280;34310;51.904;4.256;2023-04-20T10:33:54;102010.00;;;16.13;58.87
48517;BME280;34310;51.904;4.256;2023-04-20T10:36:31;102002.97;;;16.11;59.05
48517;BME280;34310;51.904;4.256;2023-04-20T10:39:00;102010.78;;;16.11;59.00
48517;BME280;34310;51.904;4.256;2023-04-20T10:41:31;102004.78;;;16.13;59.12
48517;BME280;34310;51.904;4.256;2023-04-20T10:44:08;102000.47;;;16.13;58.95
48517;BME280;34310;51.904;4.256;2023-04-20T10:46:35;102002.16;;;16.13;59.01
48517;BME280;34310;51.904;4.256;2023-04-20T10:49:03;101996.16;;;16.14;58.99
48517;BME280;34310;51.904;4.256;2023-04-20T10:51:30;102005.78;;;16.15;59.16
48517;BME280;34310;51.904;4.256;2023-04-20T10:54:06;102011.78;;;16.14;59.01
48517;BME280;34310;51.904;4.256;2023-04-20T10:56:44;102017.00;;;16.14;59.14
48517;BME280;34310;51.904;4.256;2023-04-20T10:59:13;102008.38;;;16.15;59.15
48517;BME280;34310;51.904;4.256;2023-04-20T11:01:41;101998.88;;;16.15;59.04
48517;BME280;34310;51.904;4.256;2023-04-20T11:04:09;102007.59;;;16.16;59.13
48517;BME280;34310;51.904;4.256;2023-04-20T11:06:43;102001.56;;;16.17;59.09
48517;BME280;34310;51.904;4.256;2023-04-20T11:09:22;101985.84;;;16.15;59.08
48517;BME280;34310;51.904;4.256;2023-04-20T11:12:02;101990.25;;;16.16;58.95
48517;BME280;34310;51.904;4.256;2023-04-20T11:14:31;101996.34;;;16.17;59.12
48517;BME280;34310;51.904;4.256;2023-04-20T11:17:00;101985.94;;;16.17;59.13
48517;BME280;34310;51.904;4.256;2023-04-20T11:19:31;101986.84;;;16.17;59.29
48517;BME280;34310;51.904;4.256;2023-04-20T11:22:00;101973.91;;;16.19;59.28
48517;BME280;34310;51.904;4.256;2023-04-20T11:24:30;101973.91;;;16.19;59.18
48517;BME280;34310;51.904;4.256;2023-04-20T11:27:00;101961.69;;;16.18;59.27
48517;BME280;34310;51.904;4.256;2023-04-20T11:29:35;101972.09;;;16.18;59.20
48517;BME280;34310;51.904;4.256;2023-04-20T11:32:06;101970.53;;;16.20;59.20
48517;BME280;34310;51.904;4.256;2023-04-20T11:34:35;101962.72;;;16.20;59.13
48517;BME280;34310;51.904;4.256;2023-04-20T11:37:08;101954.91;;;16.20;59.17
48517;BME280;34310;51.904;4.256;2023-04-20T11:39:37;101956.72;;;16.21;59.12
48517;BME280;34310;51.904;4.256;2023-04-20T11:42:05;101954.09;;;16.21;59.27
48517;BME280;34310;51.904;4.256;2023-04-20T11:44:32;101953.28;;;16.22;59.26
48517;BME280;34310;51.904;4.256;2023-04-20T11:47:02;101953.28;;;16.22;59.13
48517;BME280;34310;51.904;4.256;2023-04-20T11:49:30;101945.47;;;16.22;59.07
48517;BME280;34310;51.904;4.256;2023-04-20T11:51:57;101965.53;;;16.23;59.09
48517;BME280;34310;51.904;4.256;2023-04-20T11:54:24;101956.00;;;16.23;59.11
48517;BME280;34310;51.904;4.256;2023-04-20T11:56:53;101949.00;;;16.22;59.02
48517;BME280;34310;51.904;4.256;2023-04-20T11:59:20;101949.09;;;16.24;59.11
48517;BME280;34310;51.904;4.256;2023-04-20T12:01:48;101942.16;;;16.24;59.16
48517;BME280;34310;51.904;4.256;2023-04-20T12:04:15;101932.66;;;16.25;59.08
48517;BME280;34310;51.904;4.256;2023-04-20T12:06:43;101931.84;;;16.26;59.21
48517;BME280;34310;51.904;4.256;2023-04-20T12:09:11;101924.03;;;16.26;59.19
48517;BME280;34310;51.904;4.256;2023-04-20T12:11:39;101926.72;;;16.27;59.38
48517;BME280;34310;51.904;4.256;2023-04-20T12:14:07;101921.63;;;16.29;59.28
48517;BME280;34310;51.904;4.256;2023-04-20T12:16:34;101921.63;;;16.29;59.11
48517;BME280;34310;51.904;4.256;2023-04-20T12:19:01;101923.41;;;16.30;59.32
48517;BME280;34310;51.904;4.256;2023-04-20T12:21:29;101930.44;;;16.31;59.34
48517;BME280;34310;51.904;4.256;2023-04-20T12:23:57;101937.34;;;16.30;59.34
48517;BME280;34310;51.904;4.256;2023-04-20T12:26:25;101922.63;;;16.31;59.16
48517;BME280;34310;51.904;4.256;2023-04-20T12:29:03;101924.41;;;16.32;59.25
48517;BME280;34310;51.904;4.256;2023-04-20T12:31:31;101916.59;;;16.32;59.17
48517;BME280;34310;51.904;4.256;2023-04-20T12:33:58;101918.41;;;16.33;59.16
48517;BME280;34310;51.904;4.256;2023-04-20T12:36:25;101914.09;;;16.33;59.26
48517;BME280;34310;51.904;4.256;2023-04-20T12:38:53;101911.47;;;16.33;59.09
48517;BME280;34310;51.904;4.256;2023-04-20T12:41:22;101917.59;;;16.34;59.16
48517;BME280;34310;51.904;4.256;2023-04-20T12:43:50;101913.28;;;16.34;59.30
48517;BME280;34310;51.904;4.256;2023-04-20T12:46:17;101905.47;;;16.34;59.33
48517;BME280;34310;51.904;4.256;2023-04-20T12:48:45;101897.66;;;16.34;59.15
48517;BME280;34310;51.904;4.256;2023-04-20T12:51:13;101907.28;;;16.35;59.20
48517;BME280;34310;51.904;4.256;2023-04-20T12:53:41;101900.34;;;16.36;59.20
48517;BME280;34310;51.904;4.256;2023-04-20T12:56:08;101908.28;;;16.37;59.09
48517;BME280;34310;51.904;4.256;2023-04-20T12:58:35;101906.47;;;16.36;59.18